sensor_id;sensor_type;location;lat;lon;timestamp;temperature;humidity
516;DHT22;244;48.508;9.052;2022-09-02T00:01:27;16.10;17.20
516;DHT22;244;48.508;9.052;2022-09-02T00:03:56;16.10;17.30
516;DHT22;244;48.508;9.052;2022-09-02T00:06:26;16.10;17.30
516;DHT22;244;48.508;9.052;2022-09-02T00:08:53;16.00;17.90
516;DHT22;244;48.508;9.052;2022-09-02T00:11:23;16.00;17.40
516;DHT22;244;48.508;9.052;2022-09-02T00:13:52;16.00;17.40
516;DHT22;244;48.508;9.052;2022-09-02T00:16:19;15.90;17.40
516;DHT22;244;48.508;9.052;2022-09-02T00:18:48;15.90;17.50
516;DHT22;244;48.508;9.052;2022-09-02T00:21:17;15.90;17.50
516;DHT22;244;48.508;9.052;2022-09-02T00:23:45;15.90;17.50
516;DHT22;244;48.508;9.052;2022-09-02T00:26:12;15.90;17.70
516;DHT22;244;48.508;9.052;2022-09-02T00:28:40;15.80;17.60
516;DHT22;244;48.508;9.052;2022-09-02T00:31:07;15.80;17.70
516;DHT22;244;48.508;9.052;2022-09-02T00:33:34;15.80;17.80
516;DHT22;244;48.508;9.052;2022-09-02T00:36:02;15.80;17.90
516;DHT22;244;48.508;9.052;2022-09-02T00:38:30;15.70;17.90
516;DHT22;244;48.508;9.052;2022-09-02T00:41:01;15.70;17.90
516;DHT22;244;48.508;9.052;2022-09-02T00:43:43;15.80;18.00
516;DHT22;244;48.508;9.052;2022-09-02T00:46:13;15.70;17.90
516;DHT22;244;48.508;9.052;2022-09-02T00:48:45;15.70;18.00
516;DHT22;244;48.508;9.052;2022-09-02T00:51:13;15.60;18.10
516;DHT22;244;48.508;9.052;2022-09-02T00:53:41;15.60;18.00
516;DHT22;244;48.508;9.052;2022-09-02T00:56:15;15.60;18.00
516;DHT22;244;48.508;9.052;2022-09-02T00:58:45;15.50;18.00
516;DHT22;244;48.508;9.052;2022-09-02T01:01:12;15.50;18.10
516;DHT22;244;48.508;9.052;2022-09-02T01:03:39;15.50;18.10
516;DHT22;244;48.508;9.052;2022-09-02T01:06:08;15.40;18.10
516;DHT22;244;48.508;9.052;2022-09-02T01:08:36;15.40;18.00
516;DHT22;244;48.508;9.052;2022-09-02T01:11:04;15.40;18.20
516;DHT22;244;48.508;9.052;2022-09-02T01:13:35;15.30;18.40
516;DHT22;244;48.508;9.052;2022-09-02T01:16:08;15.30;18.40
516;DHT22;244;48.508;9.052;2022-09-02T01:18:36;15.30;18.40
516;DHT22;244;48.508;9.052;2022-09-02T01:21:04;15.20;18.40
516;DHT22;244;48.508;9.052;2022-09-02T01:23:33;15.20;18.40
516;DHT22;244;48.508;9.052;2022-09-02T01:26:02;15.20;18.40
516;DHT22;244;48.508;9.052;2022-09-02T01:28:32;15.10;18.30
516;DHT22;244;48.508;9.052;2022-09-02T01:31:00;15.10;18.30
516;DHT22;244;48.508;9.052;2022-09-02T01:33:27;15.10;18.90
516;DHT22;244;48.508;9.052;2022-09-02T01:35:55;15.00;18.20
516;DHT22;244;48.508;9.052;2022-09-02T01:38:23;15.00;18.20
516;DHT22;244;48.508;9.052;2022-09-02T01:40:52;15.00;18.90
516;DHT22;244;48.508;9.052;2022-09-02T01:43:22;14.90;18.20
516;DHT22;244;48.508;9.052;2022-09-02T01:45:52;15.00;19.00
516;DHT22;244;48.508;9.052;2022-09-02T01:48:20;14.90;19.10
516;DHT22;244;48.508;9.052;2022-09-02T01:50:53;14.90;18.40
516;DHT22;244;48.508;9.052;2022-09-02T01:53:20;14.90;18.40
516;DHT22;244;48.508;9.052;2022-09-02T01:55:48;14.90;18.50
516;DHT22;244;48.508;9.052;2022-09-02T01:58:16;14.90;18.70
516;DHT22;244;48.508;9.052;2022-09-02T02:00:44;14.90;18.80
516;DHT22;244;48.508;9.052;2022-09-02T02:03:11;14.90;18.70
516;DHT22;244;48.508;9.052;2022-09-02T02:05:38;14.90;18.80
516;DHT22;244;48.508;9.052;2022-09-02T02:08:05;14.90;18.70
516;DHT22;244;48.508;9.052;2022-09-02T02:10:33;14.80;18.60
516;DHT22;244;48.508;9.052;2022-09-02T02:13:00;14.80;18.70
516;DHT22;244;48.508;9.052;2022-09-02T02:15:29;14.80;18.60
516;DHT22;244;48.508;9.052;2022-09-02T02:17:56;14.80;18.60
516;DHT22;244;48.508;9.052;2022-09-02T02:20:24;14.80;18.60
516;DHT22;244;48.508;9.052;2022-09-02T02:22:51;14.70;18.60
516;DHT22;244;48.508;9.052;2022-09-02T02:25:18;14.70;18.60
516;DHT22;244;48.508;9.052;2022-09-02T02:27:45;14.70;18.70
516;DHT22;244;48.508;9.052;2022-09-02T02:30:14;14.70;18.80
516;DHT22;244;48.508;9.052;2022-09-02T02:32:44;14.60;18.90
516;DHT22;244;48.508;9.052;2022-09-02T02:35:13;14.60;18.90
516;DHT22;244;48.508;9.052;2022-09-02T02:37:40;14.60;18.90
516;DHT22;244;48.508;9.052;2022-09-02T02:40:08;14.60;18.90
516;DHT22;244;48.508;9.052;2022-09-02T02:42:36;14.60;18.80
516;DHT22;244;48.508;9.052;2022-09-02T02:45:05;14.60;18.90
516;DHT22;244;48.508;9.052;2022-09-02T02:47:37;14.60;18.80
516;DHT22;244;48.508;9.052;2022-09-02T02:50:07;14.50;18.70
516;DHT22;244;48.508;9.052;2022-09-02T02:52:36;14.50;18.70
516;DHT22;244;48.508;9.052;2022-09-02T02:55:03;14.50;18.60
516;DHT22;244;48.508;9.052;2022-09-02T02:57:31;14.40;18.50
516;DHT22;244;48.508;9.052;2022-09-02T03:00:03;14.40;18.60
516;DHT22;244;48.508;9.052;2022-09-02T03:02:30;14.40;18.90
516;DHT22;244;48.508;9.052;2022-09-02T03:04:57;14.30;18.60
516;DHT22;244;48.508;9.052;2022-09-02T03:07:27;14.30;18.60
516;DHT22;244;48.508;9.052;2022-09-02T03:09:54;14.20;18.50
516;DHT22;244;48.508;9.052;2022-09-02T03:12:21;14.20;18.60
516;DHT22;244;48.508;9.052;2022-09-02T03:14:48;14.10;18.50
516;DHT22;244;48.508;9.052;2022-09-02T03:17:15;14.10;18.60
516;DHT22;244;48.508;9.052;2022-09-02T03:19:42;14.10;18.60
516;DHT22;244;48.508;9.052;2022-09-02T03:22:09;14.10;19.30
516;DHT22;244;48.508;9.052;2022-09-02T03:24:37;14.00;18.80
516;DHT22;244;48.508;9.052;2022-09-02T03:27:04;14.00;18.80
516;DHT22;244;48.508;9.052;2022-09-02T03:29:31;14.00;18.80
516;DHT22;244;48.508;9.052;2022-09-02T03:31:58;14.00;18.80
516;DHT22;244;48.508;9.052;2022-09-02T03:34:26;13.90;18.70
516;DHT22;244;48.508;9.052;2022-09-02T03:36:53;13.90;18.70
516;DHT22;244;48.508;9.052;2022-09-02T03:39:20;13.90;18.80
516;DHT22;244;48.508;9.052;2022-09-02T03:41:48;13.80;18.80
516;DHT22;244;48.508;9.052;2022-09-02T03:44:15;13.90;18.90
516;DHT22;244;48.508;9.052;2022-09-02T03:46:42;13.80;18.80
516;DHT22;244;48.508;9.052;2022-09-02T03:49:09;13.80;18.90
516;DHT22;244;48.508;9.052;2022-09-02T03:51:39;13.80;19.00
516;DHT22;244;48.508;9.052;2022-09-02T03:54:07;13.80;19.70
516;DHT22;244;48.508;9.052;2022-09-02T03:56:34;13.80;19.50
516;DHT22;244;48.508;9.052;2022-09-02T03:59:03;13.80;19.20
516;DHT22;244;48.508;9.052;2022-09-02T04:01:30;13.80;19.20
516;DHT22;244;48.508;9.052;2022-09-02T04:03:57;13.70;19.20
516;DHT22;244;48.508;9.052;2022-09-02T04:06:27;13.70;19.20
516;DHT22;244;48.508;9.052;2022-09-02T04:08:54;13.70;19.10
516;DHT22;244;48.508;9.052;2022-09-02T04:11:22;13.70;19.00
516;DHT22;244;48.508;9.052;2022-09-02T04:13:50;13.70;19.10
516;DHT22;244;48.508;9.052;2022-09-02T04:16:22;13.60;18.90
516;DHT22;244;48.508;9.052;2022-09-02T04:18:56;13.60;19.60
516;DHT22;244;48.508;9.052;2022-09-02T04:21:25;13.60;19.00
516;DHT22;244;48.508;9.052;2022-09-02T04:23:52;13.60;19.00
516;DHT22;244;48.508;9.052;2022-09-02T04:26:19;13.50;19.00
516;DHT22;244;48.508;9.052;2022-09-02T04:28:47;13.50;19.00
516;DHT22;244;48.508;9.052;2022-09-02T04:31:16;13.50;19.10
516;DHT22;244;48.508;9.052;2022-09-02T04:33:45;13.50;19.20
516;DHT22;244;48.508;9.052;2022-09-02T04:36:13;13.50;19.20
516;DHT22;244;48.508;9.052;2022-09-02T04:38:40;13.50;19.10
516;DHT22;244;48.508;9.052;2022-09-02T04:41:09;13.50;19.20
516;DHT22;244;48.508;9.052;2022-09-02T04:43:37;13.50;19.10
516;DHT22;244;48.508;9.052;2022-09-02T04:46:05;13.40;19.10
516;DHT22;244;48.508;9.052;2022-09-02T04:48:33;13.40;19.20
516;DHT22;244;48.508;9.052;2022-09-02T04:51:04;13.40;19.10
516;DHT22;244;48.508;9.052;2022-09-02T04:53:32;13.40;19.20
516;DHT22;244;48.508;9.052;2022-09-02T04:55:59;13.50;19.20
516;DHT22;244;48.508;9.052;2022-09-02T04:58:28;13.50;19.30
516;DHT22;244;48.508;9.052;2022-09-02T05:00:55;13.50;19.30
516;DHT22;244;48.508;9.052;2022-09-02T05:03:22;13.50;19.30
516;DHT22;244;48.508;9.052;2022-09-02T05:05:57;13.60;19.30
516;DHT22;244;48.508;9.052;2022-09-02T05:08:26;13.60;19.80
516;DHT22;244;48.508;9.052;2022-09-02T05:10:53;13.60;19.20
516;DHT22;244;48.508;9.052;2022-09-02T05:13:20;13.70;19.30
516;DHT22;244;48.508;9.052;2022-09-02T05:15:48;13.70;19.30
516;DHT22;244;48.508;9.052;2022-09-02T05:18:16;13.70;19.10
516;DHT22;244;48.508;9.052;2022-09-02T05:20:42;13.70;19.20
516;DHT22;244;48.508;9.052;2022-09-02T05:23:10;13.70;19.10
516;DHT22;244;48.508;9.052;2022-09-02T05:25:39;13.70;19.10
516;DHT22;244;48.508;9.052;2022-09-02T05:28:07;13.70;19.10
516;DHT22;244;48.508;9.052;2022-09-02T05:30:35;13.70;19.10
516;DHT22;244;48.508;9.052;2022-09-02T05:33:02;13.70;19.20
516;DHT22;244;48.508;9.052;2022-09-02T05:35:29;13.70;19.20
516;DHT22;244;48.508;9.052;2022-09-02T05:37:56;13.70;19.30
516;DHT22;244;48.508;9.052;2022-09-02T05:40:23;13.70;19.40
516;DHT22;244;48.508;9.052;2022-09-02T05:42:52;13.70;19.40
516;DHT22;244;48.508;9.052;2022-09-02T05:45:19;13.70;19.30
516;DHT22;244;48.508;9.052;2022-09-02T05:47:48;13.70;19.40
516;DHT22;244;48.508;9.052;2022-09-02T05:50:15;13.80;20.00
516;DHT22;244;48.508;9.052;2022-09-02T05:52:42;13.80;19.50
516;DHT22;244;48.508;9.052;2022-09-02T05:55:10;13.80;19.60
516;DHT22;244;48.508;9.052;2022-09-02T05:57:37;13.90;19.80
516;DHT22;244;48.508;9.052;2022-09-02T06:00:06;13.90;19.90
516;DHT22;244;48.508;9.052;2022-09-02T06:02:33;14.00;19.90
516;DHT22;244;48.508;9.052;2022-09-02T06:05:00;14.10;19.90
516;DHT22;244;48.508;9.052;2022-09-02T06:07:27;14.10;19.90
516;DHT22;244;48.508;9.052;2022-09-02T06:09:54;14.20;19.90
516;DHT22;244;48.508;9.052;2022-09-02T06:12:21;14.20;20.50
516;DHT22;244;48.508;9.052;2022-09-02T06:14:48;14.30;20.00
516;DHT22;244;48.508;9.052;2022-09-02T06:17:16;14.30;20.00
516;DHT22;244;48.508;9.052;2022-09-02T06:19:43;14.40;20.10
516;DHT22;244;48.508;9.052;2022-09-02T06:22:10;14.40;20.10
516;DHT22;244;48.508;9.052;2022-09-02T06:24:37;14.50;20.00
516;DHT22;244;48.508;9.052;2022-09-02T06:27:04;14.60;20.10
516;DHT22;244;48.508;9.052;2022-09-02T06:29:31;14.60;20.00
516;DHT22;244;48.508;9.052;2022-09-02T06:31:59;14.70;20.10
516;DHT22;244;48.508;9.052;2022-09-02T06:34:27;14.80;20.70
516;DHT22;244;48.508;9.052;2022-09-02T06:36:54;14.80;20.00
516;DHT22;244;48.508;9.052;2022-09-02T06:39:22;14.90;20.00
516;DHT22;244;48.508;9.052;2022-09-02T06:41:50;15.00;19.90
516;DHT22;244;48.508;9.052;2022-09-02T06:44:18;15.00;19.80
516;DHT22;244;48.508;9.052;2022-09-02T06:46:50;15.10;19.90
516;DHT22;244;48.508;9.052;2022-09-02T06:49:18;15.20;19.80
516;DHT22;244;48.508;9.052;2022-09-02T06:51:48;15.20;19.80
516;DHT22;244;48.508;9.052;2022-09-02T06:54:18;15.30;19.80
516;DHT22;244;48.508;9.052;2022-09-02T06:56:45;15.40;19.70
516;DHT22;244;48.508;9.052;2022-09-02T06:59:12;15.40;19.70
516;DHT22;244;48.508;9.052;2022-09-02T07:01:39;15.50;19.70
516;DHT22;244;48.508;9.052;2022-09-02T07:04:07;15.60;19.70
516;DHT22;244;48.508;9.052;2022-09-02T07:06:54;15.70;19.60
516;DHT22;244;48.508;9.052;2022-09-02T07:09:23;15.80;19.60
516;DHT22;244;48.508;9.052;2022-09-02T07:11:56;15.90;19.70
516;DHT22;244;48.508;9.052;2022-09-02T07:14:24;15.90;19.60
516;DHT22;244;48.508;9.052;2022-09-02T07:16:53;16.00;19.60
516;DHT22;244;48.508;9.052;2022-09-02T07:19:22;16.10;19.60
516;DHT22;244;48.508;9.052;2022-09-02T07:21:50;16.20;19.60
516;DHT22;244;48.508;9.052;2022-09-02T07:24:18;16.30;19.60
516;DHT22;244;48.508;9.052;2022-09-02T07:26:46;16.40;19.50
516;DHT22;244;48.508;9.052;2022-09-02T07:29:14;16.50;19.40
516;DHT22;244;48.508;9.052;2022-09-02T07:31:43;16.70;19.40
516;DHT22;244;48.508;9.052;2022-09-02T07:34:11;16.80;19.50
516;DHT22;244;48.508;9.052;2022-09-02T07:36:39;16.90;19.60
516;DHT22;244;48.508;9.052;2022-09-02T07:39:09;17.00;19.60
516;DHT22;244;48.508;9.052;2022-09-02T07:41:38;17.10;19.70
516;DHT22;244;48.508;9.052;2022-09-02T07:44:06;17.30;19.40
516;DHT22;244;48.508;9.052;2022-09-02T07:46:34;17.40;19.30
516;DHT22;244;48.508;9.052;2022-09-02T07:49:04;17.50;19.10
516;DHT22;244;48.508;9.052;2022-09-02T07:51:33;17.60;18.90
516;DHT22;244;48.508;9.052;2022-09-02T07:54:00;17.80;18.60
516;DHT22;244;48.508;9.052;2022-09-02T07:56:27;17.90;18.90
516;DHT22;244;48.508;9.052;2022-09-02T07:58:56;18.00;18.10
516;DHT22;244;48.508;9.052;2022-09-02T08:01:22;18.20;17.90
516;DHT22;244;48.508;9.052;2022-09-02T08:03:50;18.30;17.60
516;DHT22;244;48.508;9.052;2022-09-02T08:06:17;18.40;17.40
516;DHT22;244;48.508;9.052;2022-09-02T08:08:45;18.40;17.10
516;DHT22;244;48.508;9.052;2022-09-02T08:11:12;18.60;16.90
516;DHT22;244;48.508;9.052;2022-09-02T08:13:39;18.60;16.60
516;DHT22;244;48.508;9.052;2022-09-02T08:16:07;18.70;16.30
516;DHT22;244;48.508;9.052;2022-09-02T08:18:34;18.80;16.20
516;DHT22;244;48.508;9.052;2022-09-02T08:21:01;18.90;15.90
516;DHT22;244;48.508;9.052;2022-09-02T08:23:28;19.00;15.70
516;DHT22;244;48.508;9.052;2022-09-02T08:25:57;19.10;15.50
516;DHT22;244;48.508;9.052;2022-09-02T08:28:24;19.20;15.20
516;DHT22;244;48.508;9.052;2022-09-02T08:30:52;19.20;14.70
516;DHT22;244;48.508;9.052;2022-09-02T08:33:23;19.30;14.20
516;DHT22;244;48.508;9.052;2022-09-02T08:35:50;19.40;13.90
516;DHT22;244;48.508;9.052;2022-09-02T08:38:17;19.50;13.90
516;DHT22;244;48.508;9.052;2022-09-02T08:40:46;19.50;13.60
516;DHT22;244;48.508;9.052;2022-09-02T08:43:26;19.60;13.30
516;DHT22;244;48.508;9.052;2022-09-02T08:45:58;19.70;12.90
516;DHT22;244;48.508;9.052;2022-09-02T08:48:33;19.70;12.50
516;DHT22;244;48.508;9.052;2022-09-02T08:51:04;19.80;12.50
516;DHT22;244;48.508;9.052;2022-09-02T08:53:38;19.90;12.00
516;DHT22;244;48.508;9.052;2022-09-02T08:56:08;20.00;11.70
516;DHT22;244;48.508;9.052;2022-09-02T08:58:39;20.00;11.60
516;DHT22;244;48.508;9.052;2022-09-02T09:01:15;20.10;11.40
516;DHT22;244;48.508;9.052;2022-09-02T09:03:58;20.20;11.20
516;DHT22;244;48.508;9.052;2022-09-02T09:06:36;20.30;10.90
516;DHT22;244;48.508;9.052;2022-09-02T09:09:11;20.30;10.80
516;DHT22;244;48.508;9.052;2022-09-02T09:11:44;20.40;10.60
516;DHT22;244;48.508;9.052;2022-09-02T09:14:19;20.40;10.20
516;DHT22;244;48.508;9.052;2022-09-02T09:16:55;20.50;10.20
516;DHT22;244;48.508;9.052;2022-09-02T09:19:32;20.60;9.90
516;DHT22;244;48.508;9.052;2022-09-02T09:22:02;20.60;9.60
516;DHT22;244;48.508;9.052;2022-09-02T09:24:34;20.70;9.30
516;DHT22;244;48.508;9.052;2022-09-02T09:27:03;20.80;8.80
516;DHT22;244;48.508;9.052;2022-09-02T09:29:32;20.80;8.70
516;DHT22;244;48.508;9.052;2022-09-02T09:32:01;20.90;8.50
516;DHT22;244;48.508;9.052;2022-09-02T09:34:54;21.00;8.40
516;DHT22;244;48.508;9.052;2022-09-02T09:37:28;21.00;8.20
516;DHT22;244;48.508;9.052;2022-09-02T09:39:55;21.10;8.10
516;DHT22;244;48.508;9.052;2022-09-02T09:42:30;21.20;7.80
516;DHT22;244;48.508;9.052;2022-09-02T09:44:58;21.30;7.30
516;DHT22;244;48.508;9.052;2022-09-02T09:47:25;21.40;6.90
516;DHT22;244;48.508;9.052;2022-09-02T09:50:08;21.40;6.60
516;DHT22;244;48.508;9.052;2022-09-02T09:52:35;21.50;6.30
516;DHT22;244;48.508;9.052;2022-09-02T09:55:09;21.60;6.10
516;DHT22;244;48.508;9.052;2022-09-02T09:57:37;21.60;5.70
516;DHT22;244;48.508;9.052;2022-09-02T10:00:12;21.70;4.70
516;DHT22;244;48.508;9.052;2022-09-02T10:02:46;21.80;4.70
516;DHT22;244;48.508;9.052;2022-09-02T10:05:26;21.90;4.70
516;DHT22;244;48.508;9.052;2022-09-02T10:07:54;22.00;4.80
516;DHT22;244;48.508;9.052;2022-09-02T10:10:23;22.00;4.80
516;DHT22;244;48.508;9.052;2022-09-02T10:12:52;22.10;4.90
516;DHT22;244;48.508;9.052;2022-09-02T10:15:32;22.20;4.70
516;DHT22;244;48.508;9.052;2022-09-02T10:18:14;22.30;4.50
516;DHT22;244;48.508;9.052;2022-09-02T10:20:51;22.30;4.40
516;DHT22;244;48.508;9.052;2022-09-02T10:23:43;22.40;4.30
516;DHT22;244;48.508;9.052;2022-09-02T10:26:20;22.50;4.30
516;DHT22;244;48.508;9.052;2022-09-02T10:29:06;22.50;3.90
516;DHT22;244;48.508;9.052;2022-09-02T10:31:40;22.60;3.80
516;DHT22;244;48.508;9.052;2022-09-02T10:34:18;22.60;3.80
516;DHT22;244;48.508;9.052;2022-09-02T10:37:05;22.70;3.70
516;DHT22;244;48.508;9.052;2022-09-02T10:39:47;22.70;3.70
516;DHT22;244;48.508;9.052;2022-09-02T10:42:22;22.80;3.60
516;DHT22;244;48.508;9.052;2022-09-02T10:45:00;22.90;3.50
516;DHT22;244;48.508;9.052;2022-09-02T10:47:30;22.90;3.40
516;DHT22;244;48.508;9.052;2022-09-02T10:50:12;22.90;3.30
516;DHT22;244;48.508;9.052;2022-09-02T10:52:56;22.90;3.00
516;DHT22;244;48.508;9.052;2022-09-02T10:55:33;23.00;2.90
516;DHT22;244;48.508;9.052;2022-09-02T10:58:09;23.00;2.80
516;DHT22;244;48.508;9.052;2022-09-02T11:00:39;23.00;2.40
516;DHT22;244;48.508;9.052;2022-09-02T11:03:12;23.10;2.40
516;DHT22;244;48.508;9.052;2022-09-02T11:05:44;23.10;2.20
516;DHT22;244;48.508;9.052;2022-09-02T11:08:19;23.20;2.70
516;DHT22;244;48.508;9.052;2022-09-02T11:10:55;23.20;2.10
516;DHT22;244;48.508;9.052;2022-09-02T11:13:29;23.40;2.10
516;DHT22;244;48.508;9.052;2022-09-02T11:16:03;23.50;2.10
516;DHT22;244;48.508;9.052;2022-09-02T11:18:34;23.50;1.90
516;DHT22;244;48.508;9.052;2022-09-02T11:21:18;23.60;1.90
516;DHT22;244;48.508;9.052;2022-09-02T11:23:56;23.60;1.50
516;DHT22;244;48.508;9.052;2022-09-02T11:26:28;23.70;1.40
516;DHT22;244;48.508;9.052;2022-09-02T11:29:00;23.80;1.50
516;DHT22;244;48.508;9.052;2022-09-02T11:31:32;23.80;1.50
516;DHT22;244;48.508;9.052;2022-09-02T11:34:03;23.90;1.40
516;DHT22;244;48.508;9.052;2022-09-02T11:36:36;24.00;2.10
516;DHT22;244;48.508;9.052;2022-09-02T11:39:08;24.10;1.40
516;DHT22;244;48.508;9.052;2022-09-02T11:41:55;24.20;1.40
516;DHT22;244;48.508;9.052;2022-09-02T11:44:42;24.30;1.20
516;DHT22;244;48.508;9.052;2022-09-02T11:47:39;24.40;1.20
516;DHT22;244;48.508;9.052;2022-09-02T11:50:22;24.40;1.00
516;DHT22;244;48.508;9.052;2022-09-02T11:52:59;24.50;1.40
516;DHT22;244;48.508;9.052;2022-09-02T11:55:34;24.50;1.00
516;DHT22;244;48.508;9.052;2022-09-02T11:58:02;24.60;1.00
516;DHT22;244;48.508;9.052;2022-09-02T12:00:31;24.70;1.00
516;DHT22;244;48.508;9.052;2022-09-02T12:03:08;24.70;1.00
516;DHT22;244;48.508;9.052;2022-09-02T12:06:04;24.70;1.00
516;DHT22;244;48.508;9.052;2022-09-02T12:11:43;24.90;1.00
516;DHT22;244;48.508;9.052;2022-09-02T12:17:00;25.10;1.00
516;DHT22;244;48.508;9.052;2022-09-02T12:19:40;25.10;1.00
516;DHT22;244;48.508;9.052;2022-09-02T12:22:30;25.20;1.00
516;DHT22;244;48.508;9.052;2022-09-02T12:24:58;25.30;1.00
516;DHT22;244;48.508;9.052;2022-09-02T12:27:28;25.30;1.00
516;DHT22;244;48.508;9.052;2022-09-02T12:29:56;25.30;1.00
516;DHT22;244;48.508;9.052;2022-09-02T12:35:33;25.30;1.00
516;DHT22;244;48.508;9.052;2022-09-02T12:38:23;25.40;1.00
516;DHT22;244;48.508;9.052;2022-09-02T12:41:04;25.50;1.00
516;DHT22;244;48.508;9.052;2022-09-02T12:43:45;25.60;1.00
516;DHT22;244;48.508;9.052;2022-09-02T12:46:20;25.60;1.00
516;DHT22;244;48.508;9.052;2022-09-02T12:48:57;25.70;1.00
516;DHT22;244;48.508;9.052;2022-09-02T12:51:51;25.80;1.00
516;DHT22;244;48.508;9.052;2022-09-02T12:54:23;26.00;1.00
516;DHT22;244;48.508;9.052;2022-09-02T12:56:53;26.00;1.00
516;DHT22;244;48.508;9.052;2022-09-02T12:59:27;26.10;1.00
516;DHT22;244;48.508;9.052;2022-09-02T13:02:03;26.20;1.00
516;DHT22;244;48.508;9.052;2022-09-02T13:04:37;26.30;1.00
516;DHT22;244;48.508;9.052;2022-09-02T13:07:35;26.30;1.00
516;DHT22;244;48.508;9.052;2022-09-02T13:13:55;26.50;1.00
516;DHT22;244;48.508;9.052;2022-09-02T13:16:37;26.60;1.00
516;DHT22;244;48.508;9.052;2022-09-02T13:19:26;26.60;1.00
516;DHT22;244;48.508;9.052;2022-09-02T13:22:39;26.70;1.00
516;DHT22;244;48.508;9.052;2022-09-02T13:25:33;26.80;1.00
516;DHT22;244;48.508;9.052;2022-09-02T13:28:31;26.90;1.00
516;DHT22;244;48.508;9.052;2022-09-02T13:31:12;26.90;1.00
516;DHT22;244;48.508;9.052;2022-09-02T13:33:42;27.00;1.00
516;DHT22;244;48.508;9.052;2022-09-02T13:36:09;27.00;1.00
516;DHT22;244;48.508;9.052;2022-09-02T13:38:36;27.10;1.00
516;DHT22;244;48.508;9.052;2022-09-02T13:41:03;27.20;1.00
516;DHT22;244;48.508;9.052;2022-09-02T13:43:30;27.30;1.00
516;DHT22;244;48.508;9.052;2022-09-02T13:46:00;27.40;1.00
516;DHT22;244;48.508;9.052;2022-09-02T13:48:29;27.40;1.00
516;DHT22;244;48.508;9.052;2022-09-02T13:51:01;27.50;1.00
516;DHT22;244;48.508;9.052;2022-09-02T13:53:34;27.50;1.00
516;DHT22;244;48.508;9.052;2022-09-02T13:56:04;27.50;1.00
516;DHT22;244;48.508;9.052;2022-09-02T13:58:34;27.60;1.00
516;DHT22;244;48.508;9.052;2022-09-02T14:01:21;27.60;1.00
516;DHT22;244;48.508;9.052;2022-09-02T14:03:49;27.70;1.00
516;DHT22;244;48.508;9.052;2022-09-02T14:06:20;27.70;1.00
516;DHT22;244;48.508;9.052;2022-09-02T14:08:49;27.70;1.00
516;DHT22;244;48.508;9.052;2022-09-02T14:11:17;27.70;1.00
516;DHT22;244;48.508;9.052;2022-09-02T14:13:46;27.70;1.00
516;DHT22;244;48.508;9.052;2022-09-02T14:16:24;27.90;1.00
516;DHT22;244;48.508;9.052;2022-09-02T14:19:09;27.90;1.00
516;DHT22;244;48.508;9.052;2022-09-02T14:21:46;28.00;1.00
516;DHT22;244;48.508;9.052;2022-09-02T14:24:15;28.00;1.00
516;DHT22;244;48.508;9.052;2022-09-02T14:26:46;28.10;1.00
516;DHT22;244;48.508;9.052;2022-09-02T14:29:15;28.20;1.00
516;DHT22;244;48.508;9.052;2022-09-02T14:31:43;28.40;1.00
516;DHT22;244;48.508;9.052;2022-09-02T14:34:32;28.80;1.00
516;DHT22;244;48.508;9.052;2022-09-02T14:37:22;29.60;1.00
516;DHT22;244;48.508;9.052;2022-09-02T14:40:04;31.10;1.00
516;DHT22;244;48.508;9.052;2022-09-02T14:42:41;33.00;1.00
516;DHT22;244;48.508;9.052;2022-09-02T14:45:10;34.60;1.00
516;DHT22;244;48.508;9.052;2022-09-02T14:47:38;35.80;1.00
516;DHT22;244;48.508;9.052;2022-09-02T14:50:09;36.70;1.00
516;DHT22;244;48.508;9.052;2022-09-02T14:52:44;37.30;1.00
516;DHT22;244;48.508;9.052;2022-09-02T14:55:47;37.80;1.00
516;DHT22;244;48.508;9.052;2022-09-02T14:58:17;38.70;1.00
516;DHT22;244;48.508;9.052;2022-09-02T15:00:46;39.20;1.00
516;DHT22;244;48.508;9.052;2022-09-02T15:03:16;39.50;1.00
516;DHT22;244;48.508;9.052;2022-09-02T15:05:44;39.80;1.00
516;DHT22;244;48.508;9.052;2022-09-02T15:08:13;40.20;1.00
516;DHT22;244;48.508;9.052;2022-09-02T15:10:40;40.70;1.00
516;DHT22;244;48.508;9.052;2022-09-02T15:13:10;41.00;1.00
516;DHT22;244;48.508;9.052;2022-09-02T15:15:38;41.30;1.00
516;DHT22;244;48.508;9.052;2022-09-02T15:18:05;41.00;1.00
516;DHT22;244;48.508;9.052;2022-09-02T15:20:33;40.70;1.00
516;DHT22;244;48.508;9.052;2022-09-02T15:23:00;40.30;1.00
516;DHT22;244;48.508;9.052;2022-09-02T15:25:28;39.60;1.00
516;DHT22;244;48.508;9.052;2022-09-02T15:27:55;38.90;1.00
516;DHT22;244;48.508;9.052;2022-09-02T15:30:22;38.10;1.00
516;DHT22;244;48.508;9.052;2022-09-02T15:32:49;37.70;1.00
516;DHT22;244;48.508;9.052;2022-09-02T15:35:16;37.30;1.00
516;DHT22;244;48.508;9.052;2022-09-02T15:37:43;36.90;1.00
516;DHT22;244;48.508;9.052;2022-09-02T15:40:10;36.50;1.00
516;DHT22;244;48.508;9.052;2022-09-02T15:42:38;36.40;1.00
516;DHT22;244;48.508;9.052;2022-09-02T15:45:06;35.90;1.00
516;DHT22;244;48.508;9.052;2022-09-02T15:47:35;35.30;1.00
516;DHT22;244;48.508;9.052;2022-09-02T15:50:03;34.70;1.00
516;DHT22;244;48.508;9.052;2022-09-02T15:52:30;34.10;1.00
516;DHT22;244;48.508;9.052;2022-09-02T15:54:57;33.50;1.00
516;DHT22;244;48.508;9.052;2022-09-02T15:57:24;32.90;1.00
516;DHT22;244;48.508;9.052;2022-09-02T15:59:52;32.30;1.00
516;DHT22;244;48.508;9.052;2022-09-02T16:02:19;31.70;1.00
516;DHT22;244;48.508;9.052;2022-09-02T16:04:46;31.30;1.00
516;DHT22;244;48.508;9.052;2022-09-02T16:07:13;30.90;1.00
516;DHT22;244;48.508;9.052;2022-09-02T16:09:40;30.50;1.00
516;DHT22;244;48.508;9.052;2022-09-02T16:12:07;30.20;1.00
516;DHT22;244;48.508;9.052;2022-09-02T16:14:34;29.90;1.00
516;DHT22;244;48.508;9.052;2022-09-02T16:17:02;29.70;1.00
516;DHT22;244;48.508;9.052;2022-09-02T16:19:29;29.60;1.00
516;DHT22;244;48.508;9.052;2022-09-02T16:21:56;29.50;1.00
516;DHT22;244;48.508;9.052;2022-09-02T16:24:23;29.40;1.00
516;DHT22;244;48.508;9.052;2022-09-02T16:26:50;29.30;1.00
516;DHT22;244;48.508;9.052;2022-09-02T16:29:18;29.30;1.00
516;DHT22;244;48.508;9.052;2022-09-02T16:31:46;29.10;1.00
516;DHT22;244;48.508;9.052;2022-09-02T16:34:16;28.90;1.00
516;DHT22;244;48.508;9.052;2022-09-02T16:36:46;28.70;1.00
516;DHT22;244;48.508;9.052;2022-09-02T16:39:15;28.50;1.00
516;DHT22;244;48.508;9.052;2022-09-02T16:41:43;28.30;1.00
516;DHT22;244;48.508;9.052;2022-09-02T16:44:13;28.10;1.00
516;DHT22;244;48.508;9.052;2022-09-02T16:46:42;27.90;1.00
516;DHT22;244;48.508;9.052;2022-09-02T16:49:10;27.60;1.00
516;DHT22;244;48.508;9.052;2022-09-02T16:51:39;27.50;1.00
516;DHT22;244;48.508;9.052;2022-09-02T16:54:07;27.30;1.00
516;DHT22;244;48.508;9.052;2022-09-02T16:56:35;27.20;1.00
516;DHT22;244;48.508;9.052;2022-09-02T16:59:04;27.00;1.00
516;DHT22;244;48.508;9.052;2022-09-02T17:01:31;26.80;1.00
516;DHT22;244;48.508;9.052;2022-09-02T17:03:59;26.70;1.00
516;DHT22;244;48.508;9.052;2022-09-02T17:06:26;26.50;1.00
516;DHT22;244;48.508;9.052;2022-09-02T17:08:55;26.40;1.00
516;DHT22;244;48.508;9.052;2022-09-02T17:11:24;26.20;1.00
516;DHT22;244;48.508;9.052;2022-09-02T17:13:53;26.10;1.00
516;DHT22;244;48.508;9.052;2022-09-02T17:16:23;26.00;1.00
516;DHT22;244;48.508;9.052;2022-09-02T17:18:50;25.90;1.00